KLTS/LTS METAR and TAF weather

Enter ICAO airport designator
Station Type Date Time Source
KLTS METAR 2019/12/06 23:56 UTC NOAA

KLTS 062356Z 02005KT 10SM SCT250 07/00 A3034 RMK AO2A SLP278 T00651003 10134 20065 52012 $


Station Type Date Time Source
KLTS Decoded METAR 2019/12/06 23:56 UTC NOAA

Altus Air Force Base, OK, United States (KLTS) 34-39N 099-16W 420M
Dec 06, 2019 - 06:56 PM EST / 2019.12.06 2356 UTC
Wind: from the NNE (020 degrees) at 6 MPH (5 KT):0
Visibility: 10 mile(s):0
Sky conditions: partly cloudy
Temperature: 43.7 F (6.5 C)
Dew Point: 31.5 F (-0.3 C)
Relative Humidity: 61%
Pressure (altimeter): 30.34 in. Hg (1027 hPa)
Pressure tendency: 0.04 inches (1.2 hPa) higher than three hours ago
ob: KLTS 062356Z 02005KT 10SM SCT250 07/00 A3034 RMK AO2A SLP278 T00651003 10134 20065 52012
cycle: 0

Station Type Date Time Source
KLTS TAF 2019/12/06 21:42 UTC NOAA

TAF TAF
AMD KLTS 062134Z 0621/0723 03012KT 9999 SCT040 BKN250 QNH3030INS
BECMG 0621/0622 36009KT 9999 SCT030 BKN230 QNH3027INS
BECMG 0706/0707 06006KT 9999 SCT200 QNH3024INS
BECMG 0713/0714 17009KT 9999 SCT200 QNH3004INS TX13/0621Z TNM01/0712Z

Example: see airport list